Terminal Aerodrome Forecast
Issued by NWS

Home | Current Version | Previous Version | Text Only | Print | Product List | Glossary Off
Versions: 1 2 3 4 5 6 7 8 9 10 11 12 13 14 15 16 17 18 19 20

000
FTUS43 KMPX 010816 AAA
TAFRWF
TAF AMD
KRWF 010816Z 0108/0206 04013G23KT 4SM -SN OVC029
     FM010900 03013G22KT 2SM -SN BR OVC010
      TEMPO 0111/0113 1SM -SN OVC008
     FM011400 02013G22KT 5SM -SN BR OVC020
     FM011600 01013G20KT P6SM SCT020
     FM012100 36009KT P6SM FEW200=

USA.gov is the U.S. government's official web portal to all federal, state and local government web resources and services.